Time;durP1;ratioP1;P1;durP2;ratioP2;P2;SDS_P1;SDS_P2;PMS_P1;PMS_P2;Temp;Humidity;BMP_temperature;BMP_pressure;BME280_temperature;BME280_humidity;BME280_pressure;Samples;Min_cycle;Max_cycle;Signal;HPM_P1;HPM_P2
2022/08/07 00:00:28;;;;;;;10.65;9.52;;;9.90;99.90;;;;;;4947328;28;20082;-79
2022/08/07 00:02:55;;;;;;;11.02;8.85;;;9.90;99.90;;;;;;4934078;29;20046;-79
2022/08/07 00:05:21;;;;;;;9.88;8.63;;;9.90;99.90;;;;;;4934825;29;20143;-79
2022/08/07 00:07:47;;;;;;;11.18;9.98;;;9.90;99.90;;;;;;4939049;29;20070;-79
2022/08/07 00:10:13;;;;;;;12.68;9.68;;;9.90;99.90;;;;;;4937175;28;20039;-79
2022/08/07 00:12:39;;;;;;;9.82;8.77;;;9.90;99.90;;;;;;4952836;28;20046;-79
2022/08/07 00:15:05;;;;;;;11.75;9.23;;;9.80;99.90;;;;;;4954081;28;20126;-79
2022/08/07 00:17:31;;;;;;;10.73;8.52;;;9.80;99.90;;;;;;4953282;28;20049;-79
2022/08/07 00:19:56;;;;;;;10.38;9.23;;;9.80;99.90;;;;;;4937926;29;20122;-80
2022/08/07 00:22:22;;;;;;;11.20;9.23;;;9.70;99.90;;;;;;4938510;29;20035;-80
2022/08/07 00:24:47;;;;;;;9.75;8.60;;;9.70;99.90;;;;;;4936500;29;20035;-79
2022/08/07 00:27:13;;;;;;;9.60;8.00;;;9.70;99.90;;;;;;4936488;29;20043;-79
2022/08/07 00:29:38;;;;;;;10.27;8.25;;;9.70;99.90;;;;;;4937701;29;20094;-80
2022/08/07 00:32:05;;;;;;;12.10;9.20;;;9.70;99.90;;;;;;4938346;29;20047;-80
2022/08/07 00:34:31;;;;;;;11.00;8.38;;;9.60;99.90;;;;;;4937353;28;20053;-79
2022/08/07 00:36:57;;;;;;;8.60;7.13;;;9.60;99.90;;;;;;4946579;29;20035;-79
2022/08/07 00:39:22;;;;;;;8.70;7.68;;;9.60;99.90;;;;;;4954453;29;20047;-79
2022/08/07 00:41:58;;;;;;;10.13;7.75;;;9.60;99.90;;;;;;4934370;29;20079;-79
2022/08/07 00:44:24;;;;;;;10.05;8.18;;;9.50;99.90;;;;;;4937021;29;20042;-79
2022/08/07 00:46:50;;;;;;;9.18;7.88;;;9.50;99.90;;;;;;4946567;28;20039;-79
2022/08/07 00:49:16;;;;;;;9.90;8.43;;;9.50;99.90;;;;;;4954470;29;20050;-79
2022/08/07 00:51:42;;;;;;;9.60;8.20;;;9.50;99.90;;;;;;4954275;28;20035;-79
2022/08/07 00:54:09;;;;;;;8.90;7.80;;;9.50;99.90;;;;;;4929861;29;20345;-79
2022/08/07 00:56:35;;;;;;;9.60;8.05;;;9.40;99.90;;;;;;4937232;29;20078;-79
2022/08/07 00:59:02;;;;;;;8.77;7.45;;;9.40;99.90;;;;;;4952333;29;20377;-79
2022/08/07 01:01:28;;;;;;;9.13;7.07;;;9.40;99.90;;;;;;4937005;29;20098;-79
2022/08/07 01:03:53;;;;;;;7.10;6.38;;;9.30;99.90;;;;;;4954156;29;20428;-80
2022/08/07 01:06:19;;;;;;;9.25;7.57;;;9.30;99.90;;;;;;4936338;29;20039;-80
2022/08/07 01:08:46;;;;;;;10.40;7.70;;;9.30;99.90;;;;;;4953388;29;20082;-80
2022/08/07 01:11:13;;;;;;;9.15;7.63;;;9.30;99.90;;;;;;4947259;29;20040;-80
2022/08/07 01:13:39;;;;;;;8.73;7.43;;;9.30;99.90;;;;;;4934011;29;20047;-79
2022/08/07 01:16:06;;;;;;;8.77;7.22;;;9.20;99.90;;;;;;4947413;29;20403;-80
2022/08/07 01:18:34;;;;;;;7.75;6.50;;;9.20;99.90;;;;;;4937559;29;20066;-80
2022/08/07 01:21:26;;;;;;;8.85;6.75;;;9.20;99.90;;;;;;4953739;28;20465;-80
2022/08/07 01:23:54;;;;;;;8.30;6.63;;;9.20;99.90;;;;;;4950690;29;20045;-80
2022/08/07 01:26:21;;;;;;;8.13;6.90;;;9.20;99.90;;;;;;4927949;28;20039;-80
2022/08/07 01:28:49;;;;;;;7.97;6.55;;;9.20;99.90;;;;;;4946019;28;20046;-80
2022/08/07 01:31:19;;;;;;;8.40;6.88;;;9.20;99.90;;;;;;4936889;29;20047;-80
2022/08/07 01:33:47;;;;;;;8.32;7.43;;;9.10;99.90;;;;;;4935853;29;20039;-81
2022/08/07 01:36:13;;;;;;;7.97;6.70;;;9.10;99.90;;;;;;4953359;29;20043;-82
2022/08/07 01:38:39;;;;;;;7.93;7.10;;;9.10;99.90;;;;;;4934483;29;20224;-80
2022/08/07 01:41:06;;;;;;;9.07;7.13;;;9.10;99.90;;;;;;4935700;29;20050;-80
2022/08/07 01:43:32;;;;;;;8.63;6.88;;;9.10;99.90;;;;;;4927216;29;20048;-81
2022/08/07 01:45:58;;;;;;;8.48;7.28;;;9.10;99.90;;;;;;4953167;29;20043;-81
2022/08/07 01:48:25;;;;;;;8.70;7.32;;;9.10;99.90;;;;;;4936731;29;20043;-80
2022/08/07 01:58:32;;;;;;;9.15;7.50;;;9.00;99.90;;;;;;4970332;28;20106;-80
2022/08/07 02:01:03;;;;;;;9.98;8.80;;;9.00;99.90;;;;;;4939459;28;20448;-80
2022/08/07 02:03:32;;;;;;;8.23;7.13;;;8.90;99.90;;;;;;4939034;28;20407;-79
2022/08/07 02:06:09;;;;;;;8.68;7.30;;;8.90;99.90;;;;;;4954283;28;20063;-80
2022/08/07 02:08:39;;;;;;;8.98;7.85;;;8.90;99.90;;;;;;4936309;28;20069;-79
2022/08/07 02:11:07;;;;;;;8.30;7.10;;;8.90;99.90;;;;;;4956487;28;20035;-79
2022/08/07 02:13:35;;;;;;;8.65;7.75;;;8.80;99.90;;;;;;4938693;28;20058;-79
2022/08/07 02:16:03;;;;;;;9.57;7.70;;;8.90;99.90;;;;;;4956031;28;20039;-79
2022/08/07 02:18:31;;;;;;;9.63;7.47;;;8.80;99.90;;;;;;4943248;28;20403;-79
2022/08/07 02:20:59;;;;;;;9.60;8.23;;;8.80;99.90;;;;;;4939963;28;20047;-79
2022/08/07 02:23:26;;;;;;;8.73;7.45;;;8.80;99.90;;;;;;4932009;28;20035;-79
2022/08/07 02:25:54;;;;;;;9.60;7.78;;;8.80;99.90;;;;;;4939719;28;20085;-79
2022/08/07 02:28:21;;;;;;;8.35;6.93;;;8.80;99.90;;;;;;4955829;28;20062;-79
2022/08/07 02:30:48;;;;;;;9.50;7.45;;;8.80;99.90;;;;;;4938823;28;20050;-80
2022/08/07 02:33:17;;;;;;;9.13;7.65;;;8.70;99.90;;;;;;4941567;28;20487;-80
2022/08/07 02:35:45;;;;;;;11.25;8.55;;;8.80;99.90;;;;;;4955082;28;20074;-80
2022/08/07 02:38:13;;;;;;;8.35;7.38;;;8.70;99.90;;;;;;4955157;28;20031;-80
2022/08/07 02:40:39;;;;;;;9.63;7.88;;;8.80;99.90;;;;;;4930555;28;20408;-79
2022/08/07 02:43:05;;;;;;;10.70;8.63;;;8.70;99.90;;;;;;4954688;28;20060;-79
2022/08/07 02:45:34;;;;;;;9.65;7.78;;;8.80;99.90;;;;;;4968497;28;20047;-80
2022/08/07 02:48:00;;;;;;;9.70;7.38;;;8.70;99.90;;;;;;4970544;28;20496;-79
2022/08/07 02:50:25;;;;;;;10.13;7.38;;;8.70;99.90;;;;;;4938805;28;20042;-80
2022/08/07 02:53:05;;;;;;;8.80;7.30;;;8.80;99.90;;;;;;4939507;28;20039;-79
2022/08/07 02:55:36;;;;;;;12.75;7.22;;;8.70;99.90;;;;;;4938961;28;20043;-79
2022/08/07 02:58:10;;;;;;;10.40;7.22;;;8.70;99.90;;;;;;4938147;28;20035;-80
2022/08/07 03:00:37;;;;;;;9.02;6.95;;;8.70;99.90;;;;;;4960991;28;20043;-79
2022/08/07 03:03:06;;;;;;;8.60;7.28;;;8.70;99.90;;;;;;4954773;28;20062;-81
2022/08/07 03:05:35;;;;;;;9.98;7.45;;;8.70;99.90;;;;;;4953947;28;20082;-79
2022/08/07 03:08:06;;;;;;;8.50;7.25;;;8.70;99.90;;;;;;4951556;28;20031;-80
2022/08/07 03:10:32;;;;;;;11.50;7.80;;;8.60;99.90;;;;;;4947027;28;20447;-80
2022/08/07 03:12:58;;;;;;;8.60;7.10;;;8.60;99.90;;;;;;4955950;28;20041;-80
2022/08/07 03:15:25;;;;;;;8.40;6.90;;;8.60;99.90;;;;;;4955558;28;20058;-80
2022/08/07 03:17:51;;;;;;;9.75;7.70;;;8.60;99.90;;;;;;4952293;28;20553;-80
2022/08/07 03:20:17;;;;;;;7.57;6.50;;;8.60;99.90;;;;;;4938531;28;20074;-80
2022/08/07 03:22:45;;;;;;;8.63;6.38;;;8.60;99.90;;;;;;4937747;28;20031;-80
2022/08/07 03:25:11;;;;;;;8.38;6.32;;;8.50;99.90;;;;;;4954792;28;20042;-80
2022/08/07 03:27:38;;;;;;;7.53;6.70;;;8.50;99.90;;;;;;4953205;28;20403;-80
2022/08/07 03:30:04;;;;;;;8.60;7.00;;;8.50;99.90;;;;;;4948585;28;20050;-79
2022/08/07 03:32:37;;;;;;;7.40;6.47;;;8.50;99.90;;;;;;4930794;28;20066;-79
2022/08/07 03:35:03;;;;;;;;;;;8.50;99.90;;;;;;4950291;28;20039;-80
2022/08/07 03:37:31;;;;;;;9.32;6.75;;;8.50;99.90;;;;;;4942524;28;19918;-80
2022/08/07 03:39:58;;;;;;;8.38;6.72;;;8.40;99.90;;;;;;4939270;28;20069;-80
2022/08/07 03:42:24;;;;;;;8.35;7.13;;;8.40;99.90;;;;;;4939083;28;20038;-80
2022/08/07 03:44:51;;;;;;;8.85;7.00;;;8.40;99.90;;;;;;4953307;28;20045;-80
2022/08/07 03:47:17;;;;;;;9.15;7.35;;;8.40;99.90;;;;;;4954655;28;20042;-80
2022/08/07 03:49:42;;;;;;;10.38;7.70;;;8.40;99.90;;;;;;4952554;28;20521;-81
2022/08/07 03:52:10;;;;;;;9.15;7.88;;;8.40;99.90;;;;;;4948595;28;20109;-81
2022/08/07 03:54:36;;;;;;;10.18;8.20;;;8.40;99.90;;;;;;4942893;28;20395;-81
2022/08/07 03:57:04;;;;;;;10.15;7.75;;;8.40;99.90;;;;;;4942235;28;20043;-80
2022/08/07 03:59:31;;;;;;;8.90;7.25;;;8.40;99.90;;;;;;4940813;28;20093;-81
2022/08/07 04:01:57;;;;;;;8.63;7.32;;;8.40;99.90;;;;;;4942191;28;20135;-80
2022/08/07 04:04:24;;;;;;;8.68;6.72;;;8.40;99.90;;;;;;4941570;28;20041;-80
2022/08/07 04:06:50;;;;;;;9.23;7.10;;;8.40;99.90;;;;;;4958061;28;20531;-80
2022/08/07 04:09:16;;;;;;;8.45;6.88;;;8.40;99.90;;;;;;4942084;28;20565;-80
2022/08/07 04:11:46;;;;;;;7.47;6.15;;;8.40;99.90;;;;;;4940835;28;20043;-79
2022/08/07 04:14:12;;;;;;;8.50;7.22;;;8.40;99.90;;;;;;4958453;28;20042;-80
2022/08/07 04:16:39;;;;;;;6.93;6.18;;;8.40;99.90;;;;;;4956035;28;20043;-81
2022/08/07 04:19:06;;;;;;;7.00;6.30;;;8.40;99.90;;;;;;4974076;28;20049;-80
2022/08/07 04:21:32;;;;;;;8.98;6.65;;;8.40;99.90;;;;;;4956856;28;20407;-81
2022/08/07 04:23:59;;;;;;;7.72;6.40;;;8.30;99.90;;;;;;4942260;28;20035;-81
2022/08/07 04:26:25;;;;;;;7.20;6.28;;;8.30;99.90;;;;;;4936707;28;20490;-81
2022/08/07 04:28:50;;;;;;;8.25;6.80;;;8.40;99.90;;;;;;4949542;28;20121;-81
2022/08/07 04:31:16;;;;;;;8.80;6.20;;;8.40;99.90;;;;;;4942075;28;20415;-81
2022/08/07 04:33:44;;;;;;;7.78;6.53;;;8.40;99.90;;;;;;4933126;28;20046;-82
2022/08/07 04:36:10;;;;;;;7.80;6.68;;;8.40;99.90;;;;;;4933207;28;20392;-81
2022/08/07 04:38:36;;;;;;;7.50;6.40;;;8.40;99.90;;;;;;4941478;28;20042;-81
2022/08/07 04:41:02;;;;;;;7.85;6.72;;;8.40;99.90;;;;;;4936035;28;20042;-80
2022/08/07 04:43:31;;;;;;;8.68;7.07;;;8.40;99.90;;;;;;4949431;28;20038;-80
2022/08/07 04:46:16;;;;;;;9.48;6.72;;;8.40;99.90;;;;;;4941508;28;20042;-81
2022/08/07 04:49:02;;;;;;;8.18;6.32;;;8.40;99.90;;;;;;4941547;28;20046;-80
2022/08/07 04:51:38;;;;;;;9.95;8.02;;;8.50;99.90;;;;;;4933032;29;20046;-81
2022/08/07 04:54:12;;;;;;;9.95;7.55;;;8.50;99.90;;;;;;4948158;28;20043;-81
2022/08/07 04:57:15;;;;;;;10.52;7.55;;;8.50;99.90;;;;;;4957327;28;20407;-80
2022/08/07 04:59:56;;;;;;;9.05;7.63;;;8.60;99.90;;;;;;4938804;28;20062;-80
2022/08/07 05:02:49;;;;;;;7.95;6.70;;;8.60;99.90;;;;;;4938389;28;20070;-80
2022/08/07 05:05:36;;;;;;;;;;;8.60;99.90;;;;;;4965225;28;20510;-80
2022/08/07 05:08:23;;;;;;;8.38;6.22;;;8.70;99.90;;;;;;4940294;28;19918;-81
2022/08/07 05:11:00;;;;;;;9.65;7.57;;;8.70;99.90;;;;;;4920863;28;20058;-80
2022/08/07 05:13:35;;;;;;;8.50;6.82;;;8.80;99.90;;;;;;4937664;28;20031;-80
2022/08/07 05:16:04;;;;;;;10.38;7.47;;;8.90;99.90;;;;;;4939419;28;20062;-80
2022/08/07 05:18:34;;;;;;;9.50;7.53;;;8.90;99.90;;;;;;4956623;28;20038;-80
2022/08/07 05:21:02;;;;;;;8.50;7.28;;;9.00;99.90;;;;;;4956769;28;20038;-80
2022/08/07 05:23:37;;;;;;;9.32;7.32;;;9.10;99.90;;;;;;4932260;29;20118;-81
2022/08/07 05:26:05;;;;;;;10.18;7.88;;;9.20;99.90;;;;;;4948841;28;20050;-81
2022/08/07 05:28:33;;;;;;;9.57;7.40;;;9.30;99.90;;;;;;4953714;28;20046;-80
2022/08/07 05:31:00;;;;;;;10.48;6.95;;;9.40;99.90;;;;;;4954779;28;20077;-80
2022/08/07 05:33:27;;;;;;;7.93;6.78;;;9.50;99.90;;;;;;4939968;28;20045;-80
2022/08/07 05:35:54;;;;;;;8.73;6.68;;;9.60;99.90;;;;;;4939760;28;20109;-80
2022/08/07 05:38:21;;;;;;;10.45;8.20;;;9.80;99.90;;;;;;4940225;28;20289;-79
2022/08/07 05:40:48;;;;;;;8.85;7.40;;;9.90;99.90;;;;;;4938779;28;20511;-80
2022/08/07 05:43:15;;;;;;;11.23;8.05;;;10.00;99.90;;;;;;4954035;28;20077;-79
2022/08/07 05:45:42;;;;;;;11.50;9.32;;;10.10;99.90;;;;;;4951770;28;20042;-79
2022/08/07 05:48:08;;;;;;;14.32;10.30;;;10.20;99.90;;;;;;4953373;28;20031;-79
2022/08/07 05:50:35;;;;;;;15.80;11.60;;;10.30;99.90;;;;;;4943097;28;20066;-78
2022/08/07 05:53:02;;;;;;;15.07;11.27;;;10.40;99.90;;;;;;4965415;28;20125;-79
2022/08/07 05:55:29;;;;;;;15.50;11.80;;;10.50;99.90;;;;;;4937444;28;20069;-79
2022/08/07 05:57:56;;;;;;;16.88;12.45;;;10.60;99.90;;;;;;4953283;28;20446;-79
2022/08/07 06:00:23;;;;;;;16.25;11.98;;;10.70;99.90;;;;;;4963231;28;20539;-79
2022/08/07 06:02:51;;;;;;;19.10;13.13;;;10.80;99.90;;;;;;4955789;28;20055;-79
2022/08/07 06:05:19;;;;;;;18.02;12.18;;;10.80;99.90;;;;;;4940233;28;20130;-82
2022/08/07 06:07:45;;;;;;;18.63;13.20;;;11.00;99.90;;;;;;4950174;28;20396;-80
2022/08/07 06:10:11;;;;;;;22.33;15.48;;;11.10;99.90;;;;;;4955826;28;20088;-80
2022/08/07 06:12:37;;;;;;;24.63;16.08;;;11.20;99.90;;;;;;4968908;28;20039;-80
2022/08/07 06:15:03;;;;;;;23.30;15.88;;;11.30;99.90;;;;;;4955371;28;20625;-80
2022/08/07 06:17:31;;;;;;;23.55;16.63;;;11.40;99.90;;;;;;4939538;28;20092;-80
2022/08/07 06:19:58;;;;;;;25.25;17.10;;;11.50;99.90;;;;;;4955940;28;20059;-80
2022/08/07 06:22:25;;;;;;;23.60;15.82;;;11.70;99.90;;;;;;4938662;28;20525;-80
2022/08/07 06:24:51;;;;;;;22.23;16.30;;;11.80;99.90;;;;;;4947093;28;20042;-80
2022/08/07 06:27:23;;;;;;;23.33;15.93;;;11.90;99.90;;;;;;4966533;28;20121;-81
2022/08/07 06:29:49;;;;;;;24.65;17.63;;;12.00;99.90;;;;;;4955849;28;20614;-81
2022/08/07 06:32:15;;;;;;;23.95;16.75;;;12.20;99.90;;;;;;4956001;28;20035;-81
2022/08/07 06:34:40;;;;;;;23.55;17.30;;;12.30;99.90;;;;;;4953383;28;20031;-81
2022/08/07 06:37:06;;;;;;;23.02;16.10;;;12.40;99.90;;;;;;4950389;28;20078;-80
2022/08/07 06:39:32;;;;;;;22.17;16.35;;;12.60;99.90;;;;;;4944897;28;20062;-80
2022/08/07 06:42:12;;;;;;;21.40;16.20;;;12.70;99.90;;;;;;4971743;28;20130;-80
2022/08/07 06:44:39;;;;;;;20.50;16.52;;;12.90;99.90;;;;;;4938065;28;20122;-82
2022/08/07 06:47:05;;;;;;;22.65;17.00;;;13.00;99.90;;;;;;4938005;28;20046;-82
2022/08/07 06:49:31;;;;;;;20.08;15.82;;;13.10;99.90;;;;;;4939071;28;20039;-83
2022/08/07 06:51:58;;;;;;;19.88;15.93;;;13.30;99.90;;;;;;4939524;28;20045;-81
2022/08/07 06:54:25;;;;;;;21.52;16.30;;;13.30;99.90;;;;;;4937299;28;20434;-81
2022/08/07 06:56:53;;;;;;;22.38;16.42;;;13.50;99.90;;;;;;4938447;28;20035;-85
2022/08/07 06:59:22;;;;;;;18.40;14.93;;;13.50;99.90;;;;;;4939424;28;20101;-81
2022/08/07 07:01:49;;;;;;;17.85;14.15;;;13.60;99.90;;;;;;4937110;28;20057;-81
2022/08/07 07:04:15;;;;;;;14.13;11.07;;;13.70;99.90;;;;;;4969904;28;20038;-80
2022/08/07 07:06:41;;;;;;;13.45;11.25;;;13.90;99.90;;;;;;4956291;28;20133;-80
2022/08/07 07:09:15;;;;;;;13.88;10.93;;;14.00;99.90;;;;;;4932537;28;20629;-82
2022/08/07 07:11:47;;;;;;;12.60;10.57;;;14.20;99.90;;;;;;4934984;28;20070;-81
2022/08/07 07:14:16;;;;;;;14.40;10.80;;;14.30;99.90;;;;;;4938430;28;20027;-81
2022/08/07 07:16:43;;;;;;;13.40;11.27;;;14.40;99.90;;;;;;4951276;28;20073;-81
2022/08/07 07:19:12;;;;;;;10.13;8.48;;;14.50;99.90;;;;;;4952835;28;20030;-81
2022/08/07 07:21:41;;;;;;;9.23;7.70;;;14.60;99.90;;;;;;4955157;28;20074;-81
2022/08/07 07:24:09;;;;;;;9.57;7.57;;;14.70;99.90;;;;;;4939581;28;20415;-81
2022/08/07 07:26:36;;;;;;;9.77;7.25;;;14.90;99.90;;;;;;4943393;28;20073;-80
2022/08/07 07:29:09;;;;;;;8.80;6.40;;;15.20;99.90;;;;;;4951906;28;20038;-81
2022/08/07 07:31:39;;;;;;;7.20;6.45;;;15.30;99.90;;;;;;4958739;28;20043;-80
2022/08/07 07:34:08;;;;;;;9.07;6.57;;;15.50;99.90;;;;;;4959100;28;20035;-81
2022/08/07 07:36:37;;;;;;;7.70;6.85;;;15.60;99.90;;;;;;4974838;28;20499;-81
2022/08/07 07:39:04;;;;;;;7.82;6.75;;;15.60;99.90;;;;;;4956457;28;20046;-80
2022/08/07 07:41:31;;;;;;;7.40;6.55;;;15.60;99.90;;;;;;4964829;28;20042;-81
2022/08/07 07:43:58;;;;;;;7.07;5.85;;;15.60;99.90;;;;;;4955898;28;20302;-81
2022/08/07 07:46:26;;;;;;;7.47;5.50;;;15.70;99.90;;;;;;4939368;29;20051;-81
2022/08/07 07:48:53;;;;;;;6.00;4.63;;;15.70;99.90;;;;;;4971153;28;20051;-81
2022/08/07 07:51:21;;;;;;;6.00;4.43;;;15.80;99.90;;;;;;4955360;29;20043;-81
2022/08/07 07:53:49;;;;;;;3.65;3.33;;;16.00;99.90;;;;;;4964901;28;20147;-81
2022/08/07 07:56:16;;;;;;;5.45;3.35;;;16.20;99.90;;;;;;4969142;28;20047;-81
2022/08/07 07:58:43;;;;;;;4.15;3.30;;;16.40;99.90;;;;;;4974425;28;20578;-81
2022/08/07 08:01:10;;;;;;;6.03;3.83;;;16.50;99.90;;;;;;4974250;28;20503;-81
2022/08/07 08:03:38;;;;;;;5.55;4.57;;;16.60;99.90;;;;;;4974333;28;20053;-81
2022/08/07 08:06:05;;;;;;;6.68;4.90;;;16.60;99.90;;;;;;4957721;28;20043;-80
2022/08/07 08:08:34;;;;;;;6.20;4.05;;;16.80;99.90;;;;;;4954894;28;20137;-81
2022/08/07 08:37:32;;;;;;;3.80;2.72;;;21.70;99.90;;;;;;4958548;28;20055;-81
2022/08/07 08:45:04;;;;;;;;;;;;;;;;;;;;;
2022/08/07 08:57:04;;;;;;;1.92;1.70;;;25.70;77.80;;;;;;4863830;29;20127;-81
2022/08/07 09:00:27;;;;;;;5.60;2.40;;;26.20;72.20;;;;;;4780080;29;20043;-81
2022/08/07 09:04:25;;;;;;;;;;;;;;;;;;;;;
2022/08/07 09:12:08;;;;;;;2.35;2.00;;;27.10;60.10;;;;;;4820595;29;20615;-81
2022/08/07 09:23:08;;;;;;;2.55;1.98;;;27.50;66.70;;;;;;4716597;30;20557;-82
2022/08/07 09:27:02;;;;;;;2.10;1.90;;;27.40;65.50;;;;;;4755084;30;20506;-82
2022/08/07 09:34:36;;;;;;;2.42;2.03;;;27.70;63.90;;;;;;4854158;29;20049;-82
2022/08/07 09:45:39;;;;;;;2.17;1.88;;;27.60;63.20;;;;;;4808713;29;20047;-82
2022/08/07 09:49:25;;;;;;;;;;;;;;;;;;;;;
2022/08/07 09:56:24;;;;;;;2.15;1.95;;;28.00;61.10;;;;;;4735981;30;20071;-81
2022/08/07 09:59:46;;;;;;;;;;;;;;;;;;;;;
2022/08/07 10:06:36;;;;;;;1.70;1.60;;;27.70;56.70;;;;;;4801871;29;20086;-81
2022/08/07 10:14:05;;;;;;;;;;;;;;;;;;;;;
2022/08/07 10:21:10;;;;;;;;;;;;;;;;;;;;;
2022/08/07 10:24:44;;;;;;;1.65;1.45;;;27.40;60.60;;;;;;4922804;29;20124;-81
2022/08/07 10:28:26;;;;;;;3.45;1.42;;;27.60;56.40;;;;;;4867185;29;20128;-81
2022/08/07 10:32:06;;;;;;;1.75;1.10;;;27.50;60.00;;;;;;4902864;29;20059;-81
2022/08/07 10:35:20;;;;;;;2.42;1.25;;;27.70;61.00;;;;;;4927625;29;20127;-82
2022/08/07 10:38:21;;;;;;;1.50;1.27;;;28.10;58.70;;;;;;4939317;29;20058;-81
2022/08/07 10:41:18;;;;;;;1.45;1.10;;;28.30;57.60;;;;;;4912315;29;20051;-82
2022/08/07 10:47:57;;;;;;;1.33;1.20;;;28.40;57.60;;;;;;4887317;29;20082;-81
2022/08/07 10:50:53;;;;;;;1.52;1.25;;;28.70;58.10;;;;;;4932925;29;20046;-81
2022/08/07 11:01:39;;;;;;;2.35;1.30;;;29.40;56.80;;;;;;4856473;29;20086;-81
2022/08/07 11:05:06;;;;;;;1.40;1.23;;;29.70;53.70;;;;;;4852950;29;20054;-82
2022/08/07 11:08:08;;;;;;;1.92;1.00;;;29.70;54.80;;;;;;4850021;29;20121;-80
2022/08/07 11:11:06;;;;;;;2.35;1.00;;;29.80;56.20;;;;;;4925901;29;20117;-80
2022/08/07 11:13:39;;;;;;;1.20;1.10;;;30.00;54.60;;;;;;4914565;29;20461;-80
2022/08/07 11:16:34;;;;;;;1.88;0.80;;;29.90;55.10;;;;;;4905543;29;20032;-80
2022/08/07 11:19:47;;;;;;;1.92;1.20;;;29.80;53.10;;;;;;4901761;29;20567;-80
2022/08/07 11:22:33;;;;;;;1.60;1.10;;;29.80;51.90;;;;;;4845493;29;20574;-80
2022/08/07 11:25:31;;;;;;;1.67;1.10;;;29.90;53.80;;;;;;4902858;29;20416;-80
2022/08/07 11:28:49;;;;;;;1.45;0.93;;;30.00;53.80;;;;;;4916666;29;20074;-80
2022/08/07 11:32:13;;;;;;;1.50;1.20;;;30.20;51.50;;;;;;4938046;29;20050;-81
2022/08/07 11:35:07;;;;;;;1.50;1.15;;;30.20;51.40;;;;;;4938095;29;20063;-79
2022/08/07 11:37:54;;;;;;;2.03;1.30;;;30.10;52.80;;;;;;4916247;29;20052;-79
2022/08/07 11:40:50;;;;;;;1.45;1.20;;;30.00;52.20;;;;;;4919954;29;20412;-81
2022/08/07 11:43:55;;;;;;;1.45;1.30;;;29.70;51.40;;;;;;4902058;29;20489;-80
2022/08/07 11:47:20;;;;;;;2.65;1.27;;;29.50;50.70;;;;;;4905703;29;20047;-80
2022/08/07 11:50:37;;;;;;;2.03;1.25;;;29.40;52.60;;;;;;4872014;29;20087;-79
2022/08/07 11:53:18;;;;;;;1.52;1.10;;;29.30;50.00;;;;;;4900883;29;20052;-79
2022/08/07 11:56:41;;;;;;;1.85;1.33;;;29.30;51.70;;;;;;4887104;29;20055;-79
2022/08/07 11:59:52;;;;;;;1.75;1.20;;;29.30;51.60;;;;;;4877491;29;20505;-80
2022/08/07 12:03:03;;;;;;;1.52;1.10;;;29.50;51.30;;;;;;4886348;29;20037;-79
2022/08/07 12:06:08;;;;;;;;;;;;;;;;;;;;;
2022/08/07 12:09:01;;;;;;;2.50;1.38;;;29.70;51.60;;;;;;4896857;29;20528;-79
2022/08/07 12:12:09;;;;;;;2.35;1.38;;;29.80;50.70;;;;;;4911820;29;20551;-79
2022/08/07 12:15:22;;;;;;;2.50;1.30;;;30.00;52.40;;;;;;4886698;29;20052;-80
2022/08/07 12:18:21;;;;;;;1.75;1.40;;;30.20;52.90;;;;;;4842394;29;20132;-79
2022/08/07 12:21:11;;;;;;;2.28;1.50;;;30.30;49.70;;;;;;4851594;29;20056;-79
2022/08/07 12:24:34;;;;;;;;;;;;;;;;;;;;;
2022/08/07 12:28:20;;;;;;;1.98;1.35;;;30.20;51.50;;;;;;4923692;29;20042;-80
2022/08/07 13:12:45;;;;;;;1.73;1.48;;;30.00;51.60;;;;;;4939675;23;20044;-79
2022/08/07 13:19:56;;;;;;;1.70;1.38;;;29.70;51.90;;;;;;4897681;29;20095;-79
2022/08/07 13:26:32;;;;;;;2.10;1.55;;;29.50;53.30;;;;;;4962650;23;20105;-80
2022/08/07 13:29:28;;;;;;;2.40;1.45;;;30.10;52.00;;;;;;4927637;29;20511;-80
2022/08/07 13:32:04;;;;;;;2.13;1.42;;;30.40;53.10;;;;;;4934505;29;20036;-80
2022/08/07 13:34:48;;;;;;;3.95;1.50;;;30.10;51.50;;;;;;4935128;29;20122;-80
2022/08/07 13:37:40;;;;;;;2.10;1.52;;;29.80;52.90;;;;;;4953473;29;20102;-81
2022/08/07 13:40:19;;;;;;;2.60;1.38;;;29.80;52.70;;;;;;4936623;29;20404;-81
2022/08/07 13:42:48;;;;;;;1.63;1.30;;;29.80;53.20;;;;;;4953333;29;20443;-80
2022/08/07 13:45:15;;;;;;;1.98;1.40;;;30.00;52.80;;;;;;4953929;28;20047;-80
2022/08/07 13:47:42;;;;;;;13.10;1.95;;;30.10;52.70;;;;;;4952179;29;20139;-85
2022/08/07 13:50:09;;;;;;;14.40;2.03;;;30.10;53.10;;;;;;4936873;29;20118;-82
2022/08/07 13:52:43;;;;;;;2.80;1.55;;;30.30;53.50;;;;;;4935239;29;20043;-83
2022/08/07 13:55:18;;;;;;;3.33;1.58;;;30.50;52.90;;;;;;4935389;29;20094;-82
2022/08/07 13:57:49;;;;;;;2.95;1.40;;;30.60;52.00;;;;;;4951747;29;20050;-83
2022/08/07 14:00:15;;;;;;;2.20;1.48;;;30.50;52.00;;;;;;4935989;29;20039;-83
2022/08/07 14:02:43;;;;;;;8.63;1.50;;;30.30;51.30;;;;;;4951057;29;20039;-83
2022/08/07 14:05:14;;;;;;;4.13;1.52;;;30.10;51.30;;;;;;4935520;29;20034;-83
2022/08/07 14:07:45;;;;;;;2.15;1.35;;;29.70;50.90;;;;;;4936737;29;20038;-83
2022/08/07 14:10:12;;;;;;;1.20;1.10;;;29.40;51.50;;;;;;4936587;29;20039;-85
2022/08/07 14:13:01;;;;;;;2.35;1.30;;;29.10;51.60;;;;;;4951111;28;20078;-87
2022/08/07 14:15:56;;;;;;;2.22;1.52;;;28.50;51.70;;;;;;4936399;29;20038;-78
2022/08/07 14:18:36;;;;;;;1.85;1.52;;;28.20;50.90;;;;;;4940259;29;20051;-84
2022/08/07 14:21:24;;;;;;;1.25;1.15;;;28.00;52.80;;;;;;4936947;29;20035;-80
2022/08/07 14:23:59;;;;;;;2.35;1.40;;;28.10;53.20;;;;;;4937102;29;20039;-80
2022/08/07 14:26:35;;;;;;;1.50;1.17;;;28.20;52.80;;;;;;4936406;29;20027;-81
2022/08/07 14:29:04;;;;;;;1.73;1.45;;;28.30;52.30;;;;;;4941603;29;20049;-82
2022/08/07 14:31:30;;;;;;;1.80;1.40;;;28.40;52.40;;;;;;4952079;29;20491;-80
2022/08/07 14:33:58;;;;;;;2.05;1.52;;;28.40;52.50;;;;;;4952331;29;20051;-82
2022/08/07 14:36:25;;;;;;;1.60;1.15;;;28.40;52.80;;;;;;4936138;29;20396;-83
2022/08/07 14:38:51;;;;;;;3.28;1.38;;;28.50;53.30;;;;;;4952420;29;20050;-82
2022/08/07 14:41:31;;;;;;;1.65;1.40;;;28.60;52.50;;;;;;4935948;29;20162;-80
2022/08/07 14:43:59;;;;;;;4.63;1.70;;;28.70;51.70;;;;;;4952569;29;20131;-81
2022/08/07 14:46:27;;;;;;;2.28;1.40;;;28.80;52.30;;;;;;4936550;29;20031;-80
2022/08/07 14:48:55;;;;;;;1.52;1.10;;;28.80;52.10;;;;;;4951996;29;20138;-80
2022/08/07 14:51:27;;;;;;;1.20;1.10;;;28.70;51.80;;;;;;4936187;29;20376;-79
2022/08/07 14:53:54;;;;;;;1.90;1.50;;;28.60;52.10;;;;;;4952193;28;20066;-80
2022/08/07 14:56:22;;;;;;;1.42;1.20;;;28.40;51.80;;;;;;4952722;29;20174;-80
2022/08/07 14:58:52;;;;;;;1.83;1.40;;;28.30;51.60;;;;;;4935917;29;20050;-79
2022/08/07 15:01:19;;;;;;;2.38;1.20;;;28.10;51.60;;;;;;4936233;29;20046;-80
2022/08/07 15:03:46;;;;;;;2.25;1.40;;;28.00;51.70;;;;;;4952213;28;20050;-80
2022/08/07 15:06:13;;;;;;;4.05;1.70;;;27.80;52.30;;;;;;4944037;28;20036;-80
2022/08/07 15:08:42;;;;;;;1.95;1.30;;;27.50;52.50;;;;;;4952399;28;20046;-79
2022/08/07 15:11:13;;;;;;;1.65;1.20;;;27.20;52.40;;;;;;4952299;29;20495;-80
2022/08/07 15:13:53;;;;;;;2.05;1.02;;;26.90;52.30;;;;;;4951725;29;20051;-79
2022/08/07 15:16:27;;;;;;;1.67;1.55;;;26.40;53.10;;;;;;4934367;29;20044;-80
2022/08/07 15:18:56;;;;;;;2.95;1.38;;;26.10;53.30;;;;;;4943154;29;20046;-80
2022/08/07 15:21:36;;;;;;;1.77;1.40;;;25.70;54.10;;;;;;4951958;29;20158;-80
2022/08/07 15:24:09;;;;;;;2.42;1.20;;;25.40;55.40;;;;;;4952189;29;20126;-79
2022/08/07 15:26:43;;;;;;;2.17;1.27;;;25.10;55.60;;;;;;4935154;29;20147;-79
2022/08/07 15:29:17;;;;;;;1.80;1.40;;;24.90;56.40;;;;;;4951864;29;20043;-81
2022/08/07 15:31:48;;;;;;;2.70;1.40;;;24.60;56.60;;;;;;4934245;29;20162;-81
2022/08/07 15:34:15;;;;;;;1.75;1.13;;;24.40;57.20;;;;;;4951724;28;20054;-80
2022/08/07 15:36:41;;;;;;;1.60;0.90;;;24.20;57.60;;;;;;4951872;29;20562;-80
2022/08/07 15:39:11;;;;;;;1.75;1.17;;;24.10;57.90;;;;;;4952074;29;20055;-79
2022/08/07 15:41:58;;;;;;;2.92;1.10;;;23.90;57.40;;;;;;4935960;29;20040;-79
2022/08/07 15:44:27;;;;;;;3.22;1.00;;;23.80;57.10;;;;;;4935242;28;20039;-79
2022/08/07 15:47:01;;;;;;;1.38;1.05;;;23.50;58.20;;;;;;4951883;28;20535;-78
2022/08/07 15:49:34;;;;;;;3.15;1.10;;;23.40;58.10;;;;;;4955560;28;20047;-79
2022/08/07 15:52:01;;;;;;;2.70;1.10;;;23.20;58.20;;;;;;4955211;29;20047;-79
2022/08/07 15:54:39;;;;;;;2.40;1.20;;;23.10;58.50;;;;;;4955280;28;20062;-79
2022/08/07 15:57:11;;;;;;;2.67;1.15;;;23.00;59.60;;;;;;4934667;29;20039;-80
2022/08/07 15:59:38;;;;;;;1.35;1.00;;;22.90;59.70;;;;;;4939425;29;20047;-79
2022/08/07 16:02:05;;;;;;;1.70;1.15;;;22.80;60.30;;;;;;4954090;29;20043;-79
2022/08/07 16:04:34;;;;;;;3.22;1.15;;;22.70;61.00;;;;;;4955276;28;20491;-80
2022/08/07 16:07:03;;;;;;;2.22;1.65;;;22.70;61.50;;;;;;4955233;29;20511;-79
2022/08/07 16:09:46;;;;;;;1.73;1.30;;;22.60;61.60;;;;;;4955383;29;20039;-79
2022/08/07 16:12:11;;;;;;;1.52;1.02;;;22.50;61.70;;;;;;4955232;29;20061;-79
2022/08/07 16:14:57;;;;;;;2.22;1.50;;;22.40;61.20;;;;;;4953818;28;20126;-79